Janesville, South Dakota
Current Conditions -  °F | °C
As of 1:55 AM on Wednesday 22 Oct 2014 (Local Time) from KYKN Reporting Station
Clear Clear  
Wind Chill: 57°   Ceiling: Unl
Heat Index: 57°   Visibility: 10mi
Dew Point: 39°   Wind: 13mph
Humidity: 51%   Direction: 130°SE
Pressure: 29.98"   Gusts: NA
Location:  42.9599°N, 97.5079°W
Report Text: KYKN 220655Z AUTO 13011KT 10SM CLR 14/04 A2998 RMK AO1
Loading
Personal Weather Stations






























Interactive Weather Map
Tropical Storm Tracking
New forecast layout! Learn more

10-Day Weather Forecast

Advertisements
Track Severe Weather on mobile